Time;durP1;ratioP1;P1;durP2;ratioP2;P2;SDS_P1;SDS_P2;PMS_P1;PMS_P2;Temp;Humidity;BMP_temperature;BMP_pressure;BME280_temperature;BME280_humidity;BME280_pressure;Samples;Min_cycle;Max_cycle;Signal;HPM_P1;HPM_P2
2023/06/01 00:05:13;;;;;;;4.63;2.03;;;19.50;1.00;;;;;;4949743;23;20052;-55
2023/06/01 00:07:40;;;;;;;3.72;2.55;;;19.50;1.00;;;;;;4897843;29;20055;-52
2023/06/01 00:10:07;;;;;;;3.58;2.03;;;19.50;1.00;;;;;;4898006;29;20050;-55
2023/06/01 00:12:34;;;;;;;3.20;1.80;;;19.50;1.00;;;;;;4897676;29;20401;-57
2023/06/01 00:15:01;;;;;;;2.85;1.73;;;19.50;1.00;;;;;;4898039;29;20131;-54
2023/06/01 00:17:28;;;;;;;3.90;1.92;;;19.50;1.00;;;;;;4898065;29;20493;-56
2023/06/01 00:19:56;;;;;;;4.35;1.92;;;19.50;1.00;;;;;;4898036;29;20068;-52
2023/06/01 00:22:23;;;;;;;3.45;1.80;;;19.50;1.00;;;;;;4897715;29;20076;-55
2023/06/01 00:24:50;;;;;;;3.17;1.30;;;19.50;1.00;;;;;;4896979;29;20115;-55
2023/06/01 00:27:17;;;;;;;3.20;1.85;;;19.50;1.00;;;;;;4897693;29;20044;-53
2023/06/01 00:29:44;;;;;;;5.57;1.85;;;19.50;1.00;;;;;;4896133;29;20155;-55
2023/06/01 00:32:12;;;;;;;4.57;2.08;;;19.50;1.00;;;;;;4897602;29;20036;-53
2023/06/01 00:34:39;;;;;;;4.75;1.92;;;19.50;1.00;;;;;;4896007;29;20139;-55
2023/06/01 00:37:06;;;;;;;2.65;1.85;;;19.50;1.00;;;;;;4928151;23;20053;-51
2023/06/01 00:39:32;;;;;;;3.20;2.15;;;19.50;1.00;;;;;;4877160;29;20048;-53
2023/06/01 00:42:00;;;;;;;2.88;1.63;;;19.50;1.00;;;;;;4877622;29;20071;-53
2023/06/01 00:44:27;;;;;;;4.63;1.77;;;19.50;1.00;;;;;;4878539;29;20049;-54
2023/06/01 00:46:53;;;;;;;2.90;1.70;;;19.50;1.00;;;;;;4877283;29;20128;-53
2023/06/01 00:49:20;;;;;;;4.30;2.08;;;19.50;1.00;;;;;;4877245;29;20089;-50
2023/06/01 00:51:47;;;;;;;2.92;2.38;;;19.50;1.00;;;;;;4876981;29;20485;-53
2023/06/01 00:54:14;;;;;;;6.10;2.03;;;19.50;1.00;;;;;;4877441;29;20041;-49
2023/06/01 00:56:41;;;;;;;3.75;1.77;;;19.50;1.00;;;;;;4877129;29;20160;-54
2023/06/01 00:59:08;;;;;;;5.47;1.77;;;19.40;1.00;;;;;;4877102;29;20151;-54
2023/06/01 01:01:36;;;;;;;5.18;1.85;;;19.50;1.00;;;;;;4877249;29;20064;-50
2023/06/01 01:04:04;;;;;;;4.00;1.55;;;19.50;1.00;;;;;;4877019;29;20491;-53
2023/06/01 01:06:45;;;;;;;3.78;1.67;;;19.50;1.00;;;;;;5140003;23;21454;-52
2023/06/01 01:09:31;;;;;;;3.53;2.00;;;19.40;1.00;;;;;;4892453;29;20417;-51
2023/06/01 01:12:02;;;;;;;3.13;1.70;;;19.40;1.00;;;;;;4904668;29;20496;-51
2023/06/01 01:14:58;;;;;;;6.78;1.75;;;19.40;1.00;;;;;;4895639;29;20059;-53
2023/06/01 01:17:42;;;;;;;4.40;2.08;;;19.40;1.00;;;;;;4885441;29;20048;-54
2023/06/01 01:20:15;;;;;;;4.80;1.85;;;19.40;1.00;;;;;;4895496;29;20481;-51
2023/06/01 01:22:48;;;;;;;4.13;1.77;;;19.40;1.00;;;;;;4895742;29;20063;-52
2023/06/01 01:25:52;;;;;;;3.70;2.00;;;19.40;1.00;;;;;;4895353;29;20048;-52
2023/06/01 01:28:50;;;;;;;5.60;2.35;;;19.40;1.00;;;;;;4895242;29;20045;-52
2023/06/01 01:31:22;;;;;;;4.38;1.60;;;19.40;1.00;;;;;;4895455;29;20044;-52
2023/06/01 01:33:53;;;;;;;2.83;2.05;;;19.40;1.00;;;;;;4895201;29;20135;-52
2023/06/01 01:36:21;;;;;;;3.13;1.90;;;19.40;1.00;;;;;;4895277;29;20517;-56
2023/06/01 01:38:48;;;;;;;5.03;1.95;;;19.40;1.00;;;;;;4939930;23;20052;-51
2023/06/01 01:41:16;;;;;;;3.40;2.15;;;19.40;1.00;;;;;;4876493;29;20076;-54
2023/06/01 01:43:44;;;;;;;4.25;2.13;;;19.40;1.00;;;;;;4877814;29;20051;-53
2023/06/01 01:46:11;;;;;;;2.63;1.60;;;19.40;1.00;;;;;;4876804;29;20359;-52
2023/06/01 01:48:59;;;;;;;5.18;2.17;;;19.40;1.00;;;;;;4876064;29;20053;-54
2023/06/01 01:51:36;;;;;;;5.47;2.13;;;19.30;1.00;;;;;;4861237;29;20045;-55
2023/06/01 01:54:06;;;;;;;4.63;1.77;;;19.30;1.00;;;;;;4876606;29;20397;-57
2023/06/01 01:56:36;;;;;;;3.58;1.92;;;19.30;1.00;;;;;;4876456;29;20045;-51
2023/06/01 01:59:04;;;;;;;2.97;1.92;;;19.30;1.00;;;;;;4868998;29;20413;-53
2023/06/01 02:01:32;;;;;;;4.35;1.65;;;19.30;1.00;;;;;;4877914;29;20113;-50
2023/06/01 02:04:03;;;;;;;3.95;1.88;;;19.30;1.00;;;;;;4877625;29;20041;-52
2023/06/01 02:06:30;;;;;;;3.40;1.73;;;19.30;1.00;;;;;;4878282;29;20405;-51
2023/06/01 02:08:58;;;;;;;3.35;1.90;;;19.30;1.00;;;;;;4901935;23;20041;-55
2023/06/01 02:11:25;;;;;;;3.53;1.80;;;19.30;1.00;;;;;;4894264;29;20153;-50
2023/06/01 02:13:52;;;;;;;6.22;2.03;;;19.30;1.00;;;;;;4894832;29;20073;-54
2023/06/01 02:16:18;;;;;;;3.55;2.10;;;19.30;1.00;;;;;;4895216;29;20540;-51
2023/06/01 02:18:45;;;;;;;4.57;1.92;;;19.30;1.00;;;;;;4894784;29;20044;-55
2023/06/01 02:21:13;;;;;;;2.05;1.67;;;19.30;1.00;;;;;;4894907;29;20083;-53
2023/06/01 02:23:41;;;;;;;3.38;1.77;;;19.30;1.00;;;;;;4895935;29;20055;-51
2023/06/01 02:26:10;;;;;;;4.10;2.75;;;19.30;1.00;;;;;;4896270;29;20041;-50
2023/06/01 02:28:38;;;;;;;4.18;1.90;;;19.30;1.00;;;;;;4895871;29;20049;-52
2023/06/01 02:31:05;;;;;;;3.58;2.05;;;19.30;1.00;;;;;;4894938;29;20044;-53
2023/06/01 02:33:32;;;;;;;5.35;1.92;;;19.30;1.00;;;;;;4894927;29;20048;-54
2023/06/01 02:36:00;;;;;;;7.43;2.97;;;19.30;1.00;;;;;;4894758;29;20044;-51
2023/06/01 02:38:27;;;;;;;5.18;2.50;;;19.30;1.00;;;;;;4894680;29;20048;-52
2023/06/01 02:40:54;;;;;;;3.05;1.67;;;19.30;1.00;;;;;;5016641;23;20057;-51
2023/06/01 02:43:21;;;;;;;3.72;2.20;;;19.20;1.00;;;;;;4876104;29;20505;-54
2023/06/01 02:45:48;;;;;;;3.40;1.77;;;19.20;1.00;;;;;;4877136;29;20056;-53
2023/06/01 02:48:16;;;;;;;3.72;2.00;;;19.30;1.00;;;;;;4892049;29;20056;-52
2023/06/01 02:50:43;;;;;;;4.45;1.60;;;19.20;1.00;;;;;;4879148;29;20132;-51
2023/06/01 02:53:10;;;;;;;4.65;1.80;;;19.20;1.00;;;;;;4895050;29;20041;-50
2023/06/01 02:55:37;;;;;;;5.07;1.70;;;19.20;1.00;;;;;;4879456;29;20132;-54
2023/06/01 02:58:18;;;;;;;6.90;2.08;;;19.20;1.00;;;;;;4873881;29;20489;-54
2023/06/01 03:00:58;;;;;;;3.53;1.73;;;19.20;1.00;;;;;;4879157;29;20059;-54
2023/06/01 03:03:26;;;;;;;6.15;1.95;;;19.20;1.00;;;;;;4879350;29;20516;-50
2023/06/01 03:05:55;;;;;;;5.97;2.40;;;19.20;1.00;;;;;;4879241;29;20048;-53
2023/06/01 03:08:53;;;;;;;4.28;2.45;;;19.20;1.00;;;;;;4879388;29;20397;-50
2023/06/01 03:11:42;;;;;;;6.15;1.63;;;19.20;1.00;;;;;;5121284;23;20064;-56
2023/06/01 03:14:09;;;;;;;8.90;1.73;;;19.20;1.00;;;;;;4892031;29;20438;-53
2023/06/01 03:16:36;;;;;;;2.95;1.80;;;19.20;1.00;;;;;;4897731;29;20191;-52
2023/06/01 03:19:11;;;;;;;4.00;2.10;;;19.20;1.00;;;;;;4897589;29;20076;-52
2023/06/01 03:21:38;;;;;;;3.03;1.80;;;19.20;1.00;;;;;;4899016;29;20131;-55
2023/06/01 03:24:06;;;;;;;4.35;2.03;;;19.20;1.00;;;;;;4906035;29;20500;-51
2023/06/01 03:26:33;;;;;;;3.38;1.60;;;19.20;1.00;;;;;;4898999;29;20049;-53
2023/06/01 03:29:01;;;;;;;3.28;2.08;;;19.20;1.00;;;;;;4898382;29;20037;-53
2023/06/01 03:31:30;;;;;;;3.95;1.77;;;19.10;1.00;;;;;;4897278;29;20053;-52
2023/06/01 03:33:57;;;;;;;4.28;1.85;;;19.10;1.00;;;;;;4898419;29;20041;-55
2023/06/01 03:36:25;;;;;;;6.05;2.63;;;19.20;1.00;;;;;;4897322;29;20049;-51
2023/06/01 03:38:51;;;;;;;8.65;2.15;;;19.20;1.00;;;;;;4896903;29;20076;-53
2023/06/01 03:41:21;;;;;;;4.72;1.90;;;19.20;1.00;;;;;;4897171;29;20548;-52
2023/06/01 03:43:49;;;;;;;3.85;2.15;;;19.10;1.00;;;;;;4968739;23;20101;-53
2023/06/01 03:46:17;;;;;;;4.55;2.35;;;19.10;1.00;;;;;;4866245;29;20518;-52
2023/06/01 03:48:44;;;;;;;4.00;2.30;;;19.10;1.00;;;;;;4862501;29;20049;-51
2023/06/01 03:51:11;;;;;;;3.13;1.55;;;19.10;1.00;;;;;;4874240;29;20061;-52
2023/06/01 03:53:38;;;;;;;4.07;2.30;;;19.10;1.00;;;;;;4859884;29;20124;-52
2023/06/01 03:56:05;;;;;;;3.75;2.15;;;19.10;1.00;;;;;;4874624;29;20045;-51
2023/06/01 03:58:36;;;;;;;7.40;2.00;;;19.10;1.00;;;;;;4859607;29;20507;-52
2023/06/01 04:01:04;;;;;;;3.50;1.88;;;19.10;1.00;;;;;;4878874;29;20069;-51
2023/06/01 04:03:33;;;;;;;5.82;2.65;;;19.10;1.00;;;;;;4874945;29;20049;-53
2023/06/01 04:06:01;;;;;;;3.95;2.10;;;19.10;1.00;;;;;;4874936;29;20049;-51
2023/06/01 04:08:29;;;;;;;5.63;2.17;;;19.10;1.00;;;;;;4859281;29;20150;-50
2023/06/01 04:10:56;;;;;;;4.47;1.90;;;19.10;1.00;;;;;;4874985;29;20466;-54
2023/06/01 04:13:24;;;;;;;6.47;2.05;;;19.10;1.00;;;;;;4886467;23;20200;-53
2023/06/01 04:15:55;;;;;;;2.20;1.30;;;19.10;1.00;;;;;;4893949;29;20125;-52
2023/06/01 04:18:22;;;;;;;4.00;1.90;;;19.10;1.00;;;;;;4896448;29;20089;-56
2023/06/01 04:20:57;;;;;;;2.90;1.95;;;19.10;1.00;;;;;;4896416;29;20568;-54
2023/06/01 04:23:24;;;;;;;4.03;1.60;;;19.10;1.00;;;;;;4897694;29;20051;-50
2023/06/01 04:25:51;;;;;;;3.28;2.10;;;19.00;1.00;;;;;;4895918;29;20052;-53
2023/06/01 04:28:20;;;;;;;5.20;2.13;;;19.00;1.00;;;;;;4896551;29;20041;-51
2023/06/01 04:30:47;;;;;;;6.32;2.13;;;19.00;1.00;;;;;;4896043;29;20057;-52
2023/06/01 04:33:15;;;;;;;3.35;1.67;;;19.00;1.00;;;;;;4896235;29;20044;-51
2023/06/01 04:35:43;;;;;;;3.55;1.60;;;19.00;1.00;;;;;;4896312;29;20232;-54
2023/06/01 04:38:12;;;;;;;6.43;2.00;;;19.00;1.00;;;;;;4896200;29;20048;-51
2023/06/01 04:40:40;;;;;;;3.80;1.70;;;19.00;1.00;;;;;;4896116;29;20556;-52
2023/06/01 04:43:07;;;;;;;3.42;2.10;;;19.00;1.00;;;;;;4896064;29;20052;-50
2023/06/01 04:45:38;;;;;;;2.53;1.73;;;19.00;1.00;;;;;;4896208;29;20089;-50
2023/06/01 04:48:08;;;;;;;6.80;2.15;;;19.00;1.00;;;;;;4895711;29;20104;-50
2023/06/01 04:50:41;;;;;;;3.70;1.52;;;19.00;1.00;;;;;;4892406;29;20044;-52
2023/06/01 04:53:08;;;;;;;2.33;1.30;;;19.00;1.00;;;;;;4895749;29;20076;-56
2023/06/01 04:55:36;;;;;;;3.70;1.73;;;19.00;1.00;;;;;;4895806;29;20523;-55
2023/06/01 04:58:04;;;;;;;3.08;1.85;;;19.00;1.00;;;;;;4897181;29;20052;-53
2023/06/01 05:00:31;;;;;;;3.47;1.58;;;19.00;1.00;;;;;;4895592;29;20477;-52
2023/06/01 05:02:58;;;;;;;4.97;2.10;;;19.00;1.00;;;;;;4895628;29;20080;-54
2023/06/01 05:05:25;;;;;;;5.15;2.58;;;19.00;1.00;;;;;;4895806;29;20058;-54
2023/06/01 05:07:52;;;;;;;4.93;1.42;;;19.00;1.00;;;;;;4895782;29;20040;-53
2023/06/01 05:10:19;;;;;;;2.70;1.50;;;19.00;1.00;;;;;;4896972;29;20044;-54
2023/06/01 05:12:47;;;;;;;3.13;1.70;;;19.00;1.00;;;;;;4895023;29;20110;-52
2023/06/01 05:15:16;;;;;;;4.93;2.08;;;18.90;1.00;;;;;;4990057;23;20053;-56
2023/06/01 05:17:43;;;;;;;2.78;1.58;;;19.00;1.00;;;;;;4888411;29;20501;-51
2023/06/01 05:20:13;;;;;;;5.13;1.65;;;19.00;1.00;;;;;;4876790;29;20049;-53
2023/06/01 05:22:43;;;;;;;2.70;1.55;;;19.00;1.00;;;;;;4878348;29;20033;-53
2023/06/01 05:25:10;;;;;;;3.92;1.48;;;19.00;1.00;;;;;;4877794;29;20089;-52
2023/06/01 05:27:38;;;;;;;3.05;1.83;;;19.00;1.00;;;;;;4876882;29;20049;-54
2023/06/01 05:30:06;;;;;;;2.20;1.08;;;18.90;1.00;;;;;;4876645;29;20049;-52
2023/06/01 05:32:33;;;;;;;2.90;1.50;;;18.90;1.00;;;;;;4876588;29;20140;-53
2023/06/01 05:35:09;;;;;;;3.60;1.50;;;18.90;1.00;;;;;;4892015;29;20048;-52
2023/06/01 05:37:36;;;;;;;4.38;1.73;;;19.00;1.00;;;;;;4876576;29;20105;-52
2023/06/01 05:40:06;;;;;;;3.03;1.67;;;18.90;1.00;;;;;;4876419;29;20045;-52
2023/06/01 05:42:34;;;;;;;3.63;1.60;;;18.90;1.00;;;;;;4876865;29;20136;-53
2023/06/01 05:47:59;;;;;;;3.40;1.55;;;18.90;1.00;;;;;;4892382;29;20055;-50
2023/06/01 05:50:26;;;;;;;3.15;1.65;;;18.90;1.00;;;;;;4895149;29;20052;-51
2023/06/01 05:52:53;;;;;;;2.90;1.42;;;18.90;1.00;;;;;;4895143;29;20045;-50
2023/06/01 05:55:20;;;;;;;3.00;1.40;;;18.90;1.00;;;;;;4895241;29;20047;-50
2023/06/01 05:57:47;;;;;;;4.25;1.73;;;18.90;1.00;;;;;;4895105;29;20100;-54
2023/06/01 06:00:15;;;;;;;3.25;1.50;;;18.90;1.00;;;;;;4903202;29;20040;-52
2023/06/01 06:02:43;;;;;;;3.65;1.60;;;18.90;1.00;;;;;;4895564;29;20052;-55
2023/06/01 06:05:10;;;;;;;5.72;1.60;;;18.90;1.00;;;;;;4896139;29;20049;-51
2023/06/01 06:07:37;;;;;;;2.05;1.33;;;18.90;1.00;;;;;;4896747;29;20048;-50
2023/06/01 06:10:04;;;;;;;2.45;1.75;;;18.90;1.00;;;;;;4896094;29;20048;-52
2023/06/01 06:12:31;;;;;;;6.10;1.45;;;18.90;1.00;;;;;;4896318;29;20386;-53
2023/06/01 06:14:58;;;;;;;2.85;1.60;;;18.90;1.00;;;;;;4896184;29;20067;-55
2023/06/01 06:17:25;;;;;;;2.83;1.35;;;18.90;1.00;;;;;;4892255;23;20057;-54
2023/06/01 06:19:52;;;;;;;2.47;1.35;;;18.90;1.00;;;;;;4877227;29;20450;-52
2023/06/01 06:22:19;;;;;;;5.15;1.70;;;18.90;1.00;;;;;;4877518;29;20450;-54
2023/06/01 06:24:47;;;;;;;2.65;1.67;;;18.90;1.00;;;;;;4880236;29;20072;-51
2023/06/01 06:27:14;;;;;;;4.55;1.67;;;18.90;1.00;;;;;;4881176;29;20101;-53
2023/06/01 06:29:41;;;;;;;6.15;1.92;;;18.90;1.00;;;;;;4881095;29;20045;-52
2023/06/01 06:32:08;;;;;;;2.35;1.42;;;18.90;1.00;;;;;;4881077;29;20055;-53
2023/06/01 06:34:35;;;;;;;3.00;1.75;;;18.90;1.00;;;;;;4880806;29;20045;-52
2023/06/01 06:37:06;;;;;;;2.88;1.45;;;18.90;1.00;;;;;;4880703;29;20111;-54
2023/06/01 06:39:33;;;;;;;3.40;1.70;;;18.90;1.00;;;;;;4881107;29;20131;-53
2023/06/01 06:42:03;;;;;;;3.38;1.95;;;18.90;1.00;;;;;;4880933;29;20040;-53
2023/06/01 06:44:30;;;;;;;3.42;1.92;;;18.90;1.00;;;;;;4880979;29;20053;-55
2023/06/01 06:47:00;;;;;;;2.50;1.27;;;18.90;1.00;;;;;;4933580;23;20330;-54
2023/06/01 06:49:28;;;;;;;2.10;1.48;;;18.90;1.00;;;;;;4895382;29;20090;-51
2023/06/01 06:51:55;;;;;;;2.97;1.30;;;18.80;1.00;;;;;;4899644;29;20056;-55
2023/06/01 06:54:22;;;;;;;5.40;2.22;;;18.80;1.00;;;;;;4898160;29;20049;-55
2023/06/01 06:56:49;;;;;;;2.30;1.38;;;18.90;1.00;;;;;;4899095;29;20128;-52
2023/06/01 06:59:16;;;;;;;3.13;1.63;;;18.90;1.00;;;;;;4899253;29;20033;-52
2023/06/01 07:01:43;;;;;;;2.72;1.42;;;18.80;1.00;;;;;;4899366;29;20041;-51
2023/06/01 07:04:10;;;;;;;3.10;1.42;;;18.80;1.00;;;;;;4898932;29;20135;-50
2023/06/01 07:06:37;;;;;;;4.03;1.52;;;18.80;1.00;;;;;;4899350;29;20142;-51
2023/06/01 07:09:05;;;;;;;2.85;1.85;;;18.80;1.00;;;;;;4898921;29;20044;-53
2023/06/01 07:11:32;;;;;;;4.20;1.55;;;18.80;1.00;;;;;;4898993;29;20044;-51
2023/06/01 07:13:59;;;;;;;3.63;1.65;;;18.80;1.00;;;;;;4898865;29;20040;-50
2023/06/01 07:16:28;;;;;;;2.80;1.60;;;18.80;1.00;;;;;;4899013;29;20040;-51
2023/06/01 07:18:56;;;;;;;3.05;1.83;;;18.80;1.00;;;;;;5275591;23;20105;-52
2023/06/01 07:21:23;;;;;;;3.38;1.58;;;18.80;1.00;;;;;;4873454;29;20126;-50
2023/06/01 07:23:50;;;;;;;2.67;1.67;;;18.80;1.00;;;;;;4880323;29;20056;-53
2023/06/01 07:26:16;;;;;;;5.20;1.77;;;18.80;1.00;;;;;;4879828;29;20124;-50
2023/06/01 07:28:43;;;;;;;3.17;1.55;;;18.80;1.00;;;;;;4879898;29;20150;-52
2023/06/01 07:31:10;;;;;;;2.95;1.42;;;18.80;1.00;;;;;;4879977;29;20053;-54
2023/06/01 07:33:37;;;;;;;6.47;1.70;;;18.80;1.00;;;;;;4879788;29;20045;-55
2023/06/01 07:36:06;;;;;;;4.95;1.77;;;18.80;1.00;;;;;;4879198;29;20577;-53
2023/06/01 07:38:33;;;;;;;2.92;1.65;;;18.80;1.00;;;;;;4879904;29;20128;-51
2023/06/01 07:41:00;;;;;;;2.78;1.35;;;18.80;1.00;;;;;;4879641;29;20043;-55
2023/06/01 07:43:27;;;;;;;3.28;1.33;;;18.80;1.00;;;;;;4879818;29;20049;-55
2023/06/01 07:45:55;;;;;;;3.13;1.73;;;18.80;1.00;;;;;;4879489;29;20477;-51
2023/06/01 07:48:22;;;;;;;4.10;1.42;;;18.80;1.00;;;;;;4879683;29;20200;-53
2023/06/01 07:50:50;;;;;;;3.83;2.10;;;18.80;1.00;;;;;;5047680;23;20120;-52
2023/06/01 07:53:18;;;;;;;4.18;1.27;;;18.80;1.00;;;;;;4898171;29;20496;-55
2023/06/01 07:55:48;;;;;;;2.65;1.45;;;18.80;1.00;;;;;;4898268;29;20055;-53
2023/06/01 07:58:15;;;;;;;5.72;1.92;;;18.80;1.00;;;;;;4898354;29;20148;-54
2023/06/01 08:00:42;;;;;;;2.63;1.30;;;18.80;1.00;;;;;;4897916;29;20051;-57
2023/06/01 08:03:08;;;;;;;6.22;1.50;;;18.80;1.00;;;;;;4898140;29;20048;-55
2023/06/01 08:05:36;;;;;;;3.45;1.40;;;18.80;1.00;;;;;;4896950;29;20052;-54
2023/06/01 08:08:05;;;;;;;5.10;1.88;;;18.80;1.00;;;;;;4897850;29;20378;-52
2023/06/01 08:10:32;;;;;;;2.97;1.38;;;18.80;1.00;;;;;;4897788;29;20055;-57
2023/06/01 08:12:59;;;;;;;4.32;1.58;;;18.80;1.00;;;;;;4898043;29;20051;-56
2023/06/01 08:15:26;;;;;;;3.60;1.25;;;18.80;1.00;;;;;;4897778;29;20485;-57
2023/06/01 08:17:53;;;;;;;4.80;1.50;;;18.80;1.00;;;;;;4897916;29;20394;-56
2023/06/01 08:23:02;;;;;;;3.72;1.73;;;18.80;1.00;;;;;;4857309;29;20060;-54
2023/06/01 08:25:29;;;;;;;3.42;1.50;;;18.80;1.00;;;;;;4860482;29;20052;-53
2023/06/01 08:27:56;;;;;;;2.92;1.52;;;18.80;1.00;;;;;;4860354;29;20497;-57
2023/06/01 08:30:25;;;;;;;3.25;1.67;;;18.80;1.00;;;;;;4860158;29;20054;-53
2023/06/01 08:32:52;;;;;;;4.47;1.55;;;18.80;1.00;;;;;;4860196;29;20395;-57
2023/06/01 08:35:20;;;;;;;3.38;1.38;;;18.80;1.00;;;;;;4860195;29;20398;-54
2023/06/01 08:37:47;;;;;;;3.08;1.67;;;18.80;1.00;;;;;;4860178;29;20050;-57
2023/06/01 08:40:14;;;;;;;3.13;1.33;;;18.80;1.00;;;;;;4858942;29;20325;-55
2023/06/01 08:42:53;;;;;;;4.57;1.27;;;18.80;1.00;;;;;;4860380;29;20101;-55
2023/06/01 08:45:20;;;;;;;3.78;1.55;;;18.80;1.00;;;;;;4859828;29;20121;-52
2023/06/01 08:47:50;;;;;;;3.00;1.38;;;18.70;1.00;;;;;;4859560;29;20073;-53
2023/06/01 08:50:17;;;;;;;3.97;1.52;;;18.70;1.00;;;;;;4859826;29;20458;-57
2023/06/01 08:52:46;;;;;;;3.20;1.30;;;18.70;1.00;;;;;;4987043;23;20055;-54
2023/06/01 08:55:15;;;;;;;2.40;1.25;;;18.70;1.00;;;;;;4897298;29;20051;-55
2023/06/01 08:57:42;;;;;;;2.55;1.42;;;18.80;1.00;;;;;;4897275;29;20108;-56
2023/06/01 09:00:11;;;;;;;3.53;1.67;;;18.70;1.00;;;;;;4896827;29;20052;-56
2023/06/01 09:02:42;;;;;;;3.50;1.30;;;18.70;1.00;;;;;;4897228;29;20458;-55
2023/06/01 09:05:11;;;;;;;2.53;1.35;;;18.70;1.00;;;;;;4896990;29;20144;-55
2023/06/01 09:07:38;;;;;;;3.90;1.40;;;18.70;1.00;;;;;;4897122;29;20048;-55
2023/06/01 09:10:06;;;;;;;5.85;1.52;;;18.70;1.00;;;;;;4896529;29;20505;-55
2023/06/01 09:12:33;;;;;;;2.65;1.45;;;18.70;1.00;;;;;;4897164;29;20044;-58
2023/06/01 09:15:17;;;;;;;2.35;1.17;;;18.70;1.00;;;;;;4896589;29;20041;-53
2023/06/01 09:17:49;;;;;;;3.60;1.40;;;18.70;1.00;;;;;;4895733;29;20512;-53
2023/06/01 09:20:24;;;;;;;4.57;1.23;;;18.70;1.00;;;;;;4895435;29;20049;-53
2023/06/01 09:22:51;;;;;;;2.60;1.30;;;18.70;1.00;;;;;;4932041;23;20474;-54
2023/06/01 09:25:26;;;;;;;3.13;1.17;;;18.70;1.00;;;;;;4876691;29;20124;-55
2023/06/01 09:27:54;;;;;;;3.47;1.33;;;18.70;1.00;;;;;;4876903;29;20063;-54
2023/06/01 09:30:26;;;;;;;1.90;1.33;;;18.70;1.00;;;;;;4876282;29;20052;-51
2023/06/01 09:33:14;;;;;;;4.13;1.25;;;18.70;1.00;;;;;;4876616;29;20448;-56
2023/06/01 09:35:49;;;;;;;2.70;1.35;;;18.70;1.00;;;;;;4876560;29;20116;-53
2023/06/01 09:38:24;;;;;;;1.95;0.80;;;18.70;1.00;;;;;;4876160;29;20532;-54
2023/06/01 09:41:02;;;;;;;3.75;1.27;;;18.70;1.00;;;;;;4876299;29;20418;-54
2023/06/01 09:43:30;;;;;;;5.32;1.35;;;18.70;1.00;;;;;;4869206;29;20140;-54
2023/06/01 09:46:08;;;;;;;2.42;1.20;;;18.70;1.00;;;;;;4876202;29;20482;-51
2023/06/01 09:48:36;;;;;;;2.42;1.23;;;18.70;1.00;;;;;;4876142;29;20421;-55
2023/06/01 09:51:03;;;;;;;2.53;1.20;;;18.70;1.00;;;;;;4876231;29;20063;-52
2023/06/01 09:53:43;;;;;;;3.15;1.48;;;18.70;1.00;;;;;;4876822;29;20069;-55
2023/06/01 09:56:10;;;;;;;2.47;1.35;;;18.70;1.00;;;;;;4875786;29;20119;-55
2023/06/01 09:58:40;;;;;;;2.05;0.90;;;18.70;1.00;;;;;;4877502;29;20049;-55
2023/06/01 10:01:08;;;;;;;2.95;1.55;;;18.70;1.00;;;;;;4880001;29;20123;-55
2023/06/01 10:03:41;;;;;;;2.33;0.80;;;18.70;1.00;;;;;;4879959;29;20037;-53
2023/06/01 10:06:11;;;;;;;3.20;1.35;;;18.70;1.00;;;;;;4879641;29;20049;-52
2023/06/01 10:08:38;;;;;;;2.38;0.95;;;18.70;1.00;;;;;;4879839;29;20056;-52
2023/06/01 10:11:07;;;;;;;2.78;1.45;;;18.70;1.00;;;;;;4879845;29;20048;-58
2023/06/01 10:13:35;;;;;;;3.08;1.20;;;18.70;1.00;;;;;;4880043;29;20354;-51
2023/06/01 10:16:03;;;;;;;2.33;1.13;;;18.70;1.00;;;;;;4880966;29;20117;-55
2023/06/01 10:18:31;;;;;;;1.58;0.90;;;18.70;1.00;;;;;;4880886;29;20112;-56
2023/06/01 10:20:59;;;;;;;1.25;0.60;;;18.80;1.00;;;;;;4881661;29;20037;-57
2023/06/01 10:23:26;;;;;;;1.92;1.00;;;18.70;1.00;;;;;;4923908;23;20477;-57
2023/06/01 10:26:04;;;;;;;1.55;0.98;;;18.70;1.00;;;;;;4898631;29;20044;-57
2023/06/01 10:28:35;;;;;;;2.35;0.80;;;18.70;1.00;;;;;;4898411;29;20083;-56
2023/06/01 10:31:36;;;;;;;1.83;0.88;;;18.70;1.00;;;;;;4898900;29;20620;-57
2023/06/01 10:34:04;;;;;;;3.25;1.38;;;18.80;1.00;;;;;;4896247;29;20044;-56
2023/06/01 10:36:57;;;;;;;1.75;0.95;;;18.70;1.00;;;;;;4899808;29;20120;-55
2023/06/01 10:39:29;;;;;;;3.08;1.02;;;18.80;1.00;;;;;;4891537;29;20135;-56
2023/06/01 10:41:57;;;;;;;2.88;0.73;;;18.70;1.00;;;;;;4899734;29;20049;-55
2023/06/01 10:44:39;;;;;;;2.08;0.98;;;18.80;1.00;;;;;;4898270;29;20053;-54
2023/06/01 10:47:12;;;;;;;1.93;0.53;;;18.70;1.00;;;;;;4897969;29;20131;-53
2023/06/01 10:49:48;;;;;;;1.83;1.05;;;18.70;1.00;;;;;;4897791;29;20100;-57
2023/06/01 10:52:35;;;;;;;1.60;0.57;;;18.80;1.00;;;;;;4897946;29;20535;-57
2023/06/01 10:55:13;;;;;;;4.30;0.90;;;18.80;1.00;;;;;;4906958;23;20049;-56
2023/06/01 10:57:43;;;;;;;1.80;0.70;;;18.80;1.00;;;;;;4878708;29;20037;-57
2023/06/01 11:00:14;;;;;;;2.13;0.70;;;18.80;1.00;;;;;;4878130;29;20062;-57
2023/06/01 11:03:02;;;;;;;1.77;0.67;;;18.80;1.00;;;;;;4880811;29;20037;-57
2023/06/01 11:05:53;;;;;;;1.55;0.80;;;18.80;1.00;;;;;;4880512;29;20280;-56
2023/06/01 11:08:22;;;;;;;1.33;0.73;;;18.80;1.00;;;;;;4880684;29;20073;-56
2023/06/01 11:11:10;;;;;;;1.67;0.98;;;18.80;1.00;;;;;;4879927;29;20486;-55
2023/06/01 11:13:39;;;;;;;1.65;0.65;;;18.80;1.00;;;;;;4873712;29;20053;-56
2023/06/01 11:16:21;;;;;;;2.08;0.57;;;18.80;1.00;;;;;;4880414;29;20037;-54
2023/06/01 11:18:58;;;;;;;1.02;0.75;;;18.80;1.00;;;;;;4880647;29;20052;-57
2023/06/01 11:21:25;;;;;;;1.05;0.52;;;18.80;1.00;;;;;;4880181;29;20140;-57
2023/06/01 11:23:54;;;;;;;4.85;0.90;;;18.80;1.00;;;;;;4897854;23;20045;-57
2023/06/01 11:26:27;;;;;;;2.20;0.93;;;18.80;1.00;;;;;;4898420;29;20054;-57
2023/06/01 11:29:16;;;;;;;2.45;0.80;;;18.80;1.00;;;;;;4898722;29;20493;-57
2023/06/01 11:32:03;;;;;;;2.83;1.02;;;18.80;1.00;;;;;;4899077;29;20515;-57
2023/06/01 11:34:37;;;;;;;1.38;0.60;;;18.70;1.00;;;;;;4898634;29;20039;-57
2023/06/01 11:37:05;;;;;;;1.40;0.60;;;18.80;1.00;;;;;;4898769;29;20072;-57
2023/06/01 11:39:32;;;;;;;3.15;0.75;;;18.80;1.00;;;;;;4890978;29;20044;-57
2023/06/01 11:42:08;;;;;;;1.85;0.90;;;18.80;1.00;;;;;;4898424;29;20045;-57
2023/06/01 11:44:37;;;;;;;2.83;0.80;;;18.80;1.00;;;;;;4898533;29;20127;-57
2023/06/01 11:47:05;;;;;;;1.33;0.80;;;18.80;1.00;;;;;;4898639;29;20560;-55
2023/06/01 11:49:50;;;;;;;1.70;0.60;;;18.80;1.00;;;;;;4898306;29;20049;-56
2023/06/01 11:52:18;;;;;;;2.97;0.75;;;18.70;1.00;;;;;;4898356;29;20044;-59
2023/06/01 11:54:45;;;;;;;3.00;0.77;;;18.80;1.00;;;;;;4942811;23;20100;-56
2023/06/01 11:57:12;;;;;;;1.13;0.40;;;18.80;1.00;;;;;;4877265;29;20218;-57
2023/06/01 11:59:47;;;;;;;2.63;0.88;;;18.80;1.00;;;;;;4879928;29;20068;-55
2023/06/01 12:02:27;;;;;;;1.67;1.00;;;18.80;1.00;;;;;;4879779;29;20072;-56
2023/06/01 12:05:08;;;;;;;1.83;0.73;;;18.80;1.00;;;;;;4879305;29;20045;-56
2023/06/01 12:07:53;;;;;;;1.58;0.60;;;18.80;1.00;;;;;;4872219;29;20136;-56
2023/06/01 12:10:22;;;;;;;3.00;0.95;;;18.80;1.00;;;;;;4879421;29;20541;-56
2023/06/01 12:12:49;;;;;;;7.57;1.98;;;18.80;1.00;;;;;;4879446;29;20084;-57
2023/06/01 12:15:18;;;;;;;1.45;0.70;;;18.80;1.00;;;;;;4878817;29;20493;-53
2023/06/01 12:17:56;;;;;;;2.13;0.85;;;18.80;1.00;;;;;;4879410;29;20509;-55
2023/06/01 12:20:33;;;;;;;2.28;0.75;;;18.80;1.00;;;;;;4878640;29;20532;-56
2023/06/01 12:23:03;;;;;;;3.38;0.75;;;18.80;1.00;;;;;;4878760;29;20512;-56
2023/06/01 12:25:31;;;;;;;1.38;0.57;;;18.80;1.00;;;;;;4878136;29;20048;-53
2023/06/01 12:28:06;;;;;;;2.40;0.73;;;18.80;1.00;;;;;;4879354;29;20409;-53
2023/06/01 12:30:34;;;;;;;0.85;0.70;;;18.80;1.00;;;;;;4878765;29;20072;-54
2023/06/01 12:33:01;;;;;;;1.48;0.60;;;18.80;1.00;;;;;;4879242;29;20064;-56
2023/06/01 12:35:28;;;;;;;5.18;0.82;;;18.80;1.00;;;;;;4878588;29;20052;-54
2023/06/01 12:38:10;;;;;;;1.60;0.70;;;18.80;1.00;;;;;;4879094;29;20048;-54
2023/06/01 12:40:38;;;;;;;1.90;0.88;;;18.80;1.00;;;;;;4871342;29;20041;-54
2023/06/01 12:43:16;;;;;;;2.22;0.60;;;18.80;1.00;;;;;;4878812;29;20497;-57
2023/06/01 12:45:43;;;;;;;1.60;0.80;;;18.80;1.00;;;;;;4871867;29;20053;-53
2023/06/01 12:48:30;;;;;;;1.48;0.80;;;18.80;1.00;;;;;;4878856;29;20049;-56
2023/06/01 12:50:56;;;;;;;1.33;0.60;;;18.80;1.00;;;;;;4873768;29;20045;-56
2023/06/01 12:53:24;;;;;;;1.33;0.60;;;18.80;1.00;;;;;;4878649;29;20049;-54
2023/06/01 12:55:51;;;;;;;1.58;0.90;;;18.80;1.00;;;;;;4995525;23;20126;-55
2023/06/01 12:58:18;;;;;;;5.00;0.70;;;18.80;1.00;;;;;;4896320;29;20408;-54
2023/06/01 13:00:45;;;;;;;1.30;0.63;;;18.80;1.00;;;;;;4896924;29;20055;-56
2023/06/01 13:03:15;;;;;;;1.52;0.50;;;18.80;1.00;;;;;;4897077;29;20436;-54
2023/06/01 13:05:45;;;;;;;1.35;0.70;;;18.80;1.00;;;;;;4896865;29;20041;-55
2023/06/01 13:08:13;;;;;;;1.90;0.65;;;18.80;1.00;;;;;;4896814;29;20119;-56
2023/06/01 13:10:40;;;;;;;2.05;0.80;;;18.80;1.00;;;;;;4896880;29;20041;-56
2023/06/01 13:13:07;;;;;;;1.30;0.80;;;18.80;1.00;;;;;;4897102;29;20040;-56
2023/06/01 13:15:35;;;;;;;5.63;1.20;;;18.80;1.00;;;;;;4896666;29;20040;-56
2023/06/01 13:18:03;;;;;;;1.73;0.90;;;18.80;1.00;;;;;;4897094;29;20067;-56
2023/06/01 13:20:30;;;;;;;3.35;0.80;;;18.80;1.00;;;;;;4896655;29;20064;-57
2023/06/01 13:22:57;;;;;;;2.95;0.73;;;18.80;1.00;;;;;;4896781;29;20033;-54